createdAt,value
2023-11-29T00:01:33.235Z,18.90
2023-11-29T00:04:01.824Z,18.07
2023-11-29T00:06:30.478Z,17.33
2023-11-29T00:08:59.061Z,19.87
2023-11-29T00:11:28.338Z,16.13
2023-11-29T00:13:58.362Z,16.33
2023-11-29T00:16:26.883Z,18.50
2023-11-29T00:18:55.517Z,17.33
2023-11-29T00:21:24.083Z,18.17
2023-11-29T00:23:52.606Z,16.10
2023-11-29T00:26:24.095Z,17.83
2023-11-29T00:28:53.206Z,17.37
2023-11-29T00:31:23.311Z,17.90
2023-11-29T00:33:51.822Z,17.93
2023-11-29T00:36:20.370Z,17.53
2023-11-29T00:38:48.937Z,16.63
2023-11-29T00:41:17.462Z,15.90
2023-11-29T00:43:46.267Z,16.00
2023-11-29T00:46:15.429Z,16.43
2023-11-29T00:48:45.369Z,17.37
2023-11-29T00:51:13.907Z,15.40
2023-11-29T00:53:42.492Z,15.23
2023-11-29T00:56:11.568Z,15.57
2023-11-29T00:58:40.089Z,15.70
2023-11-29T01:01:08.733Z,14.60
2023-11-29T01:03:37.342Z,15.17
2023-11-29T01:06:08.176Z,16.33
2023-11-29T01:08:36.939Z,16.37
2023-11-29T01:11:06.611Z,15.23
2023-11-29T01:13:35.211Z,16.40
2023-11-29T01:16:03.794Z,15.63
2023-11-29T01:18:34.432Z,15.47
2023-11-29T01:21:03.737Z,14.63
2023-11-29T01:23:33.789Z,14.83
2023-11-29T01:26:02.572Z,16.30
2023-11-29T01:28:31.128Z,16.03
2023-11-29T01:30:59.611Z,18.27
2023-11-29T01:33:28.323Z,17.93
2023-11-29T01:35:56.845Z,18.33
2023-11-29T01:38:25.701Z,21.20
2023-11-29T01:41:02.288Z,17.40
2023-11-29T01:43:30.865Z,19.40
2023-11-29T01:45:59.829Z,18.13
2023-11-29T01:48:29.512Z,17.57
2023-11-29T01:50:59.514Z,15.23
2023-11-29T01:53:30.282Z,16.47
2023-11-29T01:56:00.373Z,15.13
2023-11-29T01:58:30.189Z,15.00
2023-11-29T02:01:03.068Z,14.37
2023-11-29T02:03:31.656Z,13.73
2023-11-29T02:06:00.480Z,14.03
2023-11-29T02:08:31.492Z,14.63
2023-11-29T02:11:01.534Z,14.80
2023-11-29T02:13:30.094Z,13.80
2023-11-29T02:15:58.579Z,15.37
2023-11-29T02:18:27.120Z,15.63
2023-11-29T02:20:55.857Z,16.03
2023-11-29T02:23:27.429Z,15.27
2023-11-29T02:25:57.430Z,15.83
2023-11-29T02:28:25.875Z,13.40
2023-11-29T02:30:54.401Z,13.97
2023-11-29T02:33:23.186Z,13.17
2023-11-29T02:35:51.643Z,12.73
2023-11-29T02:38:20.884Z,12.40
2023-11-29T02:40:49.370Z,13.67
2023-11-29T02:43:19.410Z,11.40
2023-11-29T02:45:47.940Z,11.37
2023-11-29T02:48:16.483Z,11.63
2023-11-29T02:50:45.612Z,10.50
2023-11-29T02:53:14.193Z,10.20
2023-11-29T02:55:42.963Z,10.53
2023-11-29T02:58:11.656Z,11.10
2023-11-29T03:00:41.612Z,9.63
2023-11-29T03:03:10.302Z,10.03
2023-11-29T03:05:38.921Z,9.43
2023-11-29T03:08:09.363Z,10.63
2023-11-29T03:10:37.934Z,10.40
2023-11-29T03:13:06.440Z,9.77
2023-11-29T03:15:35.008Z,9.80
2023-11-29T03:18:05.409Z,10.07
2023-11-29T03:20:34.119Z,9.00
2023-11-29T03:23:02.624Z,9.70
2023-11-29T03:25:31.133Z,8.80
2023-11-29T03:27:59.742Z,7.97
2023-11-29T03:30:28.231Z,8.90
2023-11-29T03:32:56.760Z,8.80
2023-11-29T03:35:26.773Z,8.17
2023-11-29T03:37:55.439Z,7.50
2023-11-29T03:40:23.909Z,8.27
2023-11-29T03:42:52.336Z,8.37
2023-11-29T03:45:20.867Z,6.87
2023-11-29T03:47:50.224Z,7.70
2023-11-29T03:50:18.813Z,7.43
2023-11-29T03:52:49.143Z,8.00
2023-11-29T03:55:18.274Z,8.57
2023-11-29T03:57:46.886Z,7.87
2023-11-29T04:00:16.523Z,7.37
2023-11-29T04:02:45.122Z,7.53
2023-11-29T04:05:15.112Z,6.63
2023-11-29T04:07:43.929Z,7.07
2023-11-29T04:10:14.012Z,7.70
2023-11-29T04:12:42.929Z,6.77
2023-11-29T04:15:11.929Z,6.27
2023-11-29T04:17:40.564Z,6.28
2023-11-29T04:20:10.320Z,6.37
2023-11-29T04:22:39.633Z,5.43
2023-11-29T04:25:09.755Z,6.73
2023-11-29T04:27:39.800Z,5.87
2023-11-29T04:30:09.859Z,6.03
2023-11-29T04:32:38.538Z,6.43
2023-11-29T04:35:08.593Z,5.70
2023-11-29T04:37:37.128Z,5.73
2023-11-29T04:40:06.377Z,5.50
2023-11-29T04:42:34.886Z,6.40
2023-11-29T04:45:05.128Z,5.87
2023-11-29T04:47:33.678Z,5.87
2023-11-29T04:50:02.312Z,5.77
2023-11-29T04:52:32.114Z,5.87
2023-11-29T04:55:00.647Z,5.10
2023-11-29T04:57:29.278Z,5.53
2023-11-29T04:59:57.844Z,6.00
2023-11-29T05:02:28.384Z,5.93
2023-11-29T05:04:57.119Z,6.63
2023-11-29T05:07:25.661Z,6.00
2023-11-29T05:09:54.579Z,5.57
2023-11-29T05:12:23.085Z,5.30
2023-11-29T05:14:51.751Z,5.13
2023-11-29T05:17:20.618Z,5.13
2023-11-29T05:19:51.600Z,5.60
2023-11-29T05:22:20.235Z,5.30
2023-11-29T05:24:48.756Z,5.57
2023-11-29T05:27:17.339Z,6.00
2023-11-29T05:29:45.914Z,5.20
2023-11-29T05:32:14.652Z,5.40
2023-11-29T05:34:43.157Z,5.17
2023-11-29T05:37:13.247Z,4.60
2023-11-29T05:39:41.653Z,5.47
2023-11-29T05:42:10.379Z,5.53
2023-11-29T05:44:38.963Z,5.23
2023-11-29T05:47:08.319Z,4.70
2023-11-29T05:49:37.013Z,5.67
2023-11-29T05:52:05.985Z,5.20
2023-11-29T05:54:38.680Z,5.27
2023-11-29T05:57:07.487Z,5.37
2023-11-29T05:59:37.559Z,6.10
2023-11-29T06:02:06.824Z,5.53
2023-11-29T06:04:35.473Z,5.43
2023-11-29T06:07:04.133Z,5.73
2023-11-29T06:09:32.751Z,5.40
2023-11-29T06:12:03.128Z,5.63
2023-11-29T06:14:31.671Z,6.00
2023-11-29T06:17:00.566Z,5.10
2023-11-29T06:19:29.502Z,5.63
2023-11-29T06:21:58.188Z,5.60
2023-11-29T06:24:26.948Z,5.60
2023-11-29T06:26:55.551Z,6.40
2023-11-29T06:29:25.514Z,6.30
2023-11-29T06:31:54.164Z,6.20
2023-11-29T06:34:23.080Z,6.20
2023-11-29T06:36:52.076Z,5.77
2023-11-29T06:39:20.942Z,6.37
2023-11-29T06:41:49.808Z,6.80
2023-11-29T06:44:18.588Z,6.53
2023-11-29T06:46:50.089Z,8.27
2023-11-29T06:49:18.807Z,8.27
2023-11-29T06:51:47.917Z,7.90
2023-11-29T06:54:16.428Z,11.23
2023-11-29T06:56:44.940Z,9.67
2023-11-29T06:59:13.533Z,10.97
2023-11-29T07:01:42.457Z,11.13
2023-11-29T07:04:12.802Z,11.23
2023-11-29T07:06:41.491Z,11.73
2023-11-29T07:09:10.403Z,12.30
2023-11-29T07:11:38.984Z,13.73
2023-11-29T07:14:08.161Z,13.03
2023-11-29T07:16:37.105Z,12.83
2023-11-29T07:19:06.753Z,13.43
2023-11-29T07:21:36.703Z,12.53
2023-11-29T07:24:06.884Z,13.47
2023-11-29T07:26:35.544Z,13.57
2023-11-29T07:29:04.949Z,13.67
2023-11-29T07:31:34.562Z,12.00
2023-11-29T07:34:03.202Z,13.77
2023-11-29T07:36:33.032Z,13.33
2023-11-29T07:39:03.418Z,13.07
2023-11-29T07:41:32.497Z,13.77
2023-11-29T07:44:01.188Z,15.13
2023-11-29T07:46:29.682Z,15.23
2023-11-29T07:49:00.928Z,15.53
2023-11-29T07:51:31.412Z,15.30
2023-11-29T07:54:00.297Z,14.80
2023-11-29T07:56:30.235Z,13.10
2023-11-29T07:58:58.995Z,12.87
2023-11-29T08:01:27.604Z,12.80
2023-11-29T08:03:56.232Z,13.43
2023-11-29T08:06:24.698Z,13.87
2023-11-29T08:08:53.222Z,12.97
2023-11-29T08:11:22.552Z,13.37
2023-11-29T08:13:52.904Z,14.73
2023-11-29T08:16:22.406Z,13.73
2023-11-29T08:18:53.213Z,13.53
2023-11-29T08:21:22.304Z,13.80
2023-11-29T08:23:50.850Z,11.83
2023-11-29T08:26:19.381Z,12.60
2023-11-29T08:28:47.908Z,11.77
2023-11-29T08:31:18.490Z,13.37
2023-11-29T08:33:47.035Z,12.87
2023-11-29T08:36:16.508Z,12.03
2023-11-29T08:38:45.095Z,11.63
2023-11-29T08:41:13.684Z,12.93
2023-11-29T08:43:42.226Z,13.87
2023-11-29T08:46:10.756Z,13.90
2023-11-29T08:48:40.910Z,17.20
2023-11-29T08:51:09.887Z,14.23
2023-11-29T08:53:43.253Z,20.63
2023-11-29T08:56:18.320Z,15.20
2023-11-29T08:58:47.807Z,14.57
2023-11-29T09:01:19.594Z,14.03
2023-11-29T09:03:50.387Z,14.03
2023-11-29T09:06:19.593Z,12.23
2023-11-29T09:08:48.910Z,12.20
2023-11-29T09:11:17.671Z,12.67
2023-11-29T09:13:50.294Z,12.10
2023-11-29T09:16:20.387Z,12.20
2023-11-29T09:18:50.661Z,18.77
2023-11-29T09:21:19.255Z,13.47
2023-11-29T09:23:47.959Z,12.73
2023-11-29T09:26:16.805Z,12.17
2023-11-29T09:28:45.318Z,10.53
2023-11-29T09:31:14.763Z,10.10
2023-11-29T09:33:44.150Z,10.10
2023-11-29T09:36:15.673Z,12.17
2023-11-29T09:38:44.211Z,10.87
2023-11-29T09:41:13.018Z,11.67
2023-11-29T09:43:42.433Z,13.10
2023-11-29T09:46:11.136Z,24.33
2023-11-29T09:48:39.998Z,24.07
2023-11-29T09:51:08.594Z,14.13
2023-11-29T09:53:38.723Z,13.50
2023-11-29T09:56:09.363Z,12.93
2023-11-29T09:58:37.848Z,12.37
2023-11-29T10:01:06.421Z,11.93
2023-11-29T10:03:36.206Z,12.27
2023-11-29T10:06:06.801Z,13.07
2023-11-29T10:08:35.568Z,12.20
2023-11-29T10:11:07.806Z,12.90
2023-11-29T10:13:36.230Z,12.33
2023-11-29T10:16:05.035Z,13.83
2023-11-29T10:18:34.225Z,12.67
2023-11-29T10:21:07.522Z,17.13
2023-11-29T10:23:40.746Z,12.07
2023-11-29T10:26:11.071Z,12.27
2023-11-29T10:28:41.668Z,11.90
2023-11-29T10:31:10.826Z,12.63
2023-11-29T10:33:42.227Z,13.37
2023-11-29T10:36:12.520Z,12.97
2023-11-29T10:38:45.934Z,12.77
2023-11-29T10:41:18.488Z,12.23
2023-11-29T10:43:49.495Z,11.87
2023-11-29T10:46:29.923Z,12.53
2023-11-29T10:49:06.430Z,14.10
2023-11-29T10:51:35.623Z,13.23
2023-11-29T10:54:06.380Z,11.80
2023-11-29T10:56:36.972Z,12.50
2023-11-29T10:59:15.925Z,11.20
2023-11-29T11:01:45.451Z,12.33
2023-11-29T11:04:14.535Z,13.50
2023-11-29T11:06:43.308Z,11.90
2023-11-29T11:09:34.139Z,12.20
2023-11-29T11:12:04.831Z,12.00
2023-11-29T11:14:47.247Z,12.27
2023-11-29T11:17:16.173Z,12.67
2023-11-29T11:19:46.600Z,11.33
2023-11-29T11:22:16.201Z,10.80
2023-11-29T11:25:05.936Z,11.33
2023-11-29T11:27:37.276Z,12.40
2023-11-29T11:30:22.214Z,11.50
2023-11-29T11:32:51.473Z,13.67
2023-11-29T11:35:36.984Z,12.90
2023-11-29T11:38:10.413Z,13.40
2023-11-29T11:40:40.642Z,13.63
2023-11-29T11:43:12.144Z,12.13
2023-11-29T11:45:46.776Z,14.63
2023-11-29T11:48:15.682Z,14.03
2023-11-29T11:50:44.245Z,14.57
2023-11-29T11:53:12.785Z,16.47
2023-11-29T11:55:43.007Z,16.97
2023-11-29T11:58:14.956Z,15.43
2023-11-29T12:00:43.700Z,14.53
2023-11-29T12:03:13.775Z,15.00
2023-11-29T12:05:43.226Z,14.17
2023-11-29T12:08:12.125Z,16.27
2023-11-29T12:10:41.210Z,15.17
2023-11-29T12:13:09.873Z,16.57
2023-11-29T12:15:39.943Z,15.77
2023-11-29T12:18:18.218Z,15.33
2023-11-29T12:20:47.200Z,16.27
2023-11-29T12:23:16.603Z,13.50
2023-11-29T12:25:55.867Z,11.60
2023-11-29T12:28:26.870Z,12.43
2023-11-29T12:31:00.124Z,13.63
2023-11-29T12:33:28.925Z,11.43
2023-11-29T12:35:57.574Z,11.83
2023-11-29T12:38:26.473Z,12.60
2023-11-29T12:40:55.450Z,13.23
2023-11-29T12:43:24.079Z,13.13
2023-11-29T12:45:52.636Z,15.00
2023-11-29T12:48:22.986Z,12.67
2023-11-29T12:50:51.557Z,13.10
2023-11-29T12:53:20.587Z,13.77
2023-11-29T12:55:49.162Z,13.27
2023-11-29T12:58:17.984Z,10.90
2023-11-29T13:00:47.545Z,13.90
2023-11-29T13:03:16.560Z,13.83
2023-11-29T13:05:47.121Z,13.20
2023-11-29T13:08:15.788Z,13.27
2023-11-29T13:10:44.493Z,12.77
2023-11-29T13:13:13.182Z,12.33
2023-11-29T13:15:41.864Z,12.50
2023-11-29T13:18:10.530Z,12.00
2023-11-29T13:20:39.290Z,13.13
2023-11-29T13:23:09.256Z,12.10
2023-11-29T13:25:38.039Z,13.13
2023-11-29T13:28:06.665Z,11.67
2023-11-29T13:30:35.228Z,13.20
2023-11-29T13:33:03.990Z,11.83
2023-11-29T13:35:32.545Z,14.63
2023-11-29T13:38:01.392Z,13.00
2023-11-29T13:40:31.528Z,13.20
2023-11-29T13:43:00.664Z,12.73
2023-11-29T13:45:29.229Z,12.23
2023-11-29T13:47:58.034Z,13.47
2023-11-29T13:50:26.781Z,12.33
2023-11-29T13:52:55.411Z,12.20
2023-11-29T13:55:24.254Z,13.57
2023-11-29T13:57:54.206Z,12.57
2023-11-29T14:00:23.334Z,13.50
2023-11-29T14:02:52.391Z,13.43
2023-11-29T14:05:22.613Z,16.13
2023-11-29T14:07:51.233Z,13.73
2023-11-29T14:10:20.594Z,13.60
2023-11-29T14:12:49.078Z,13.30
2023-11-29T14:15:19.492Z,13.13
2023-11-29T14:17:48.161Z,15.73
2023-11-29T14:20:19.076Z,14.00
2023-11-29T14:22:47.548Z,13.97
2023-11-29T14:25:16.121Z,13.63
2023-11-29T14:27:51.914Z,17.57
2023-11-29T14:30:27.123Z,17.70
2023-11-29T14:32:55.684Z,22.77
2023-11-29T14:35:24.207Z,22.90
2023-11-29T14:37:52.779Z,21.90
2023-11-29T14:40:21.481Z,19.73
2023-11-29T14:42:50.027Z,18.10
2023-11-29T14:45:18.602Z,18.70
2023-11-29T14:47:51.343Z,17.17
2023-11-29T14:50:19.987Z,16.97
2023-11-29T14:52:48.954Z,15.77
2023-11-29T14:55:17.753Z,16.30
2023-11-29T14:57:46.220Z,17.40
2023-11-29T15:00:16.223Z,17.90
2023-11-29T15:02:45.210Z,17.07
2023-11-29T15:05:15.181Z,17.50
2023-11-29T15:07:43.731Z,20.90
2023-11-29T15:10:12.232Z,21.93
2023-11-29T15:12:40.713Z,20.97
2023-11-29T15:15:10.270Z,20.77
2023-11-29T15:17:38.888Z,18.43
2023-11-29T15:20:09.506Z,19.00
2023-11-29T15:22:39.503Z,18.50
2023-11-29T15:25:14.750Z,16.77
2023-11-29T15:27:48.440Z,18.50
2023-11-29T15:30:17.387Z,20.50
2023-11-29T15:32:47.986Z,18.17
2023-11-29T15:35:18.407Z,17.37
2023-11-29T15:37:48.398Z,17.23
2023-11-29T15:40:17.718Z,16.00
2023-11-29T15:42:46.298Z,17.50
2023-11-29T15:45:14.872Z,17.10
2023-11-29T15:47:43.395Z,15.70
2023-11-29T15:50:12.741Z,17.27
2023-11-29T15:52:41.246Z,17.60
2023-11-29T15:55:11.700Z,16.07
2023-11-29T15:57:40.173Z,16.73
2023-11-29T16:00:10.288Z,22.87
2023-11-29T16:02:39.268Z,27.93
2023-11-29T16:05:08.522Z,20.43
2023-11-29T16:07:38.331Z,19.57
2023-11-29T16:10:07.907Z,15.80
2023-11-29T16:12:37.954Z,16.20
2023-11-29T16:15:07.708Z,15.73
2023-11-29T16:17:36.381Z,16.67
2023-11-29T16:20:05.166Z,14.87
2023-11-29T16:22:33.812Z,15.73
2023-11-29T16:25:02.311Z,15.20
2023-11-29T16:27:36.931Z,15.33
2023-11-29T16:30:08.738Z,16.07
2023-11-29T16:32:37.584Z,15.60
2023-11-29T16:35:07.506Z,16.10
2023-11-29T16:37:35.002Z,16.10
2023-11-29T16:40:03.492Z,16.13
2023-11-29T16:42:33.666Z,15.70
2023-11-29T16:45:02.347Z,14.77
2023-11-29T16:47:32.354Z,14.07
2023-11-29T16:50:01.240Z,14.20
2023-11-29T16:52:29.754Z,14.77
2023-11-29T16:54:58.596Z,15.07
2023-11-29T16:57:27.191Z,13.63
2023-11-29T16:59:55.862Z,13.07
2023-11-29T17:02:24.636Z,12.77
2023-11-29T17:04:54.900Z,14.80
2023-11-29T17:07:23.378Z,12.63
2023-11-29T17:09:51.814Z,11.77
2023-11-29T17:12:20.394Z,12.87
2023-11-29T17:14:50.467Z,14.27
2023-11-29T17:17:23.050Z,14.13
2023-11-29T17:19:54.193Z,13.30
2023-11-29T17:22:22.713Z,12.93
2023-11-29T17:24:51.282Z,12.77
2023-11-29T17:27:20.883Z,12.43
2023-11-29T17:29:49.715Z,55.60
2023-11-29T17:32:18.224Z,40.60
2023-11-29T17:34:46.716Z,17.33
2023-11-29T17:37:17.978Z,13.10
2023-11-29T17:39:46.690Z,12.87
2023-11-29T17:42:15.583Z,13.50
2023-11-29T17:44:44.123Z,12.37
2023-11-29T17:47:13.369Z,11.17
2023-11-29T17:49:41.868Z,10.67
2023-11-29T17:52:10.738Z,10.43
2023-11-29T17:54:40.751Z,11.83
2023-11-29T17:57:09.390Z,10.90
2023-11-29T17:59:38.237Z,10.83
2023-11-29T18:02:07.715Z,10.47
2023-11-29T18:04:36.675Z,9.23
2023-11-29T18:07:05.571Z,9.17
2023-11-29T18:09:34.109Z,9.47
2023-11-29T18:12:07.203Z,9.23
2023-11-29T18:14:35.773Z,9.40
2023-11-29T18:17:04.560Z,8.67
2023-11-29T18:19:33.582Z,8.80
2023-11-29T18:22:02.085Z,8.47
2023-11-29T18:24:30.542Z,11.33
2023-11-29T18:26:59.057Z,21.27
2023-11-29T18:29:30.095Z,21.07
2023-11-29T18:31:58.573Z,19.87
2023-11-29T18:34:27.123Z,18.87
2023-11-29T18:36:55.659Z,18.83
2023-11-29T18:39:24.252Z,18.60
2023-11-29T18:41:52.744Z,18.63
2023-11-29T18:44:21.879Z,17.40
2023-11-29T18:46:51.884Z,18.37
2023-11-29T18:49:21.157Z,20.43
2023-11-29T18:51:50.139Z,24.53
2023-11-29T18:54:18.731Z,24.70
2023-11-29T18:56:50.535Z,26.83
2023-11-29T18:59:19.575Z,21.53
2023-11-29T19:01:49.181Z,21.57
2023-11-29T19:04:23.303Z,19.50
2023-11-29T19:06:51.921Z,22.50
2023-11-29T19:09:21.419Z,20.50
2023-11-29T19:11:50.036Z,19.80
2023-11-29T19:14:18.797Z,17.77
2023-11-29T19:16:47.885Z,19.30
2023-11-29T19:19:16.421Z,19.90
2023-11-29T19:21:46.542Z,21.20
2023-11-29T19:24:15.205Z,17.97
2023-11-29T19:26:43.712Z,16.60
2023-11-29T19:29:12.230Z,18.00
2023-11-29T19:31:40.838Z,17.93
2023-11-29T19:34:10.064Z,21.10
2023-11-29T19:36:38.537Z,20.10
2023-11-29T19:39:08.407Z,19.70
2023-11-29T19:41:37.149Z,21.63
2023-11-29T19:44:05.965Z,25.60
2023-11-29T19:46:34.529Z,23.17
2023-11-29T19:49:03.120Z,19.77
2023-11-29T19:51:31.549Z,21.30
2023-11-29T19:54:00.149Z,20.37
2023-11-29T19:56:30.107Z,18.10
2023-11-29T19:58:58.607Z,15.40
2023-11-29T20:01:29.085Z,13.50
2023-11-29T20:03:57.567Z,10.40
2023-11-29T20:06:31.420Z,8.77
2023-11-29T20:09:04.012Z,8.63
2023-11-29T20:11:37.053Z,8.33
2023-11-29T20:14:10.892Z,7.57
2023-11-29T20:16:45.154Z,7.33
2023-11-29T20:19:13.763Z,7.53
2023-11-29T20:21:42.317Z,8.17
2023-11-29T20:24:10.838Z,7.47
2023-11-29T20:26:40.755Z,7.77
2023-11-29T20:29:09.243Z,8.23
2023-11-29T20:31:38.542Z,8.17
2023-11-29T20:34:14.828Z,7.80
2023-11-29T20:36:49.949Z,7.53
2023-11-29T20:39:18.967Z,6.60
2023-11-29T20:41:51.128Z,7.80
2023-11-29T20:44:20.083Z,15.17
2023-11-29T20:46:49.033Z,16.13
2023-11-29T20:49:17.494Z,17.23
2023-11-29T20:51:45.976Z,18.00
2023-11-29T20:54:14.441Z,15.37
2023-11-29T20:56:43.024Z,17.00
2023-11-29T20:59:13.689Z,15.53
2023-11-29T21:01:42.680Z,18.27
2023-11-29T21:04:13.193Z,15.17
2023-11-29T21:06:42.060Z,14.87
2023-11-29T21:09:10.757Z,13.23
2023-11-29T21:11:39.769Z,13.43
2023-11-29T21:14:08.584Z,11.10
2023-11-29T21:16:38.660Z,10.87
2023-11-29T21:19:07.346Z,7.10
2023-11-29T21:21:35.998Z,7.27
2023-11-29T21:24:05.995Z,7.57
2023-11-29T21:26:34.791Z,7.70
2023-11-29T21:29:03.472Z,6.87
2023-11-29T21:31:33.425Z,7.20
2023-11-29T21:34:03.604Z,7.33
2023-11-29T21:36:32.118Z,7.03
2023-11-29T21:39:01.502Z,6.33
2023-11-29T21:41:33.181Z,6.73
2023-11-29T21:44:01.968Z,7.93
2023-11-29T21:46:30.561Z,8.20
2023-11-29T21:48:59.255Z,7.70
2023-11-29T21:51:30.585Z,7.10
2023-11-29T21:53:59.378Z,6.67
2023-11-29T21:56:28.180Z,7.17
2023-11-29T21:58:56.664Z,6.97
2023-11-29T22:01:26.327Z,6.77
2023-11-29T22:03:55.084Z,7.30
2023-11-29T22:06:25.808Z,6.70
2023-11-29T22:08:55.828Z,6.33
2023-11-29T22:11:24.416Z,6.63
2023-11-29T22:13:53.215Z,6.60
2023-11-29T22:16:25.553Z,7.23
2023-11-29T22:18:56.121Z,6.87
2023-11-29T22:21:26.746Z,6.30
2023-11-29T22:23:57.602Z,6.73
2023-11-29T22:26:27.433Z,6.57
2023-11-29T22:28:56.020Z,6.00
2023-11-29T22:31:24.616Z,6.10
2023-11-29T22:33:53.158Z,5.53
2023-11-29T22:36:22.430Z,6.30
2023-11-29T22:38:51.409Z,6.07
2023-11-29T22:41:26.051Z,5.67
2023-11-29T22:43:55.324Z,6.37
2023-11-29T22:46:26.382Z,6.83
2023-11-29T22:48:55.336Z,7.13
2023-11-29T22:51:25.459Z,7.10
2023-11-29T22:53:54.248Z,7.67
2023-11-29T22:56:27.454Z,6.70
2023-11-29T22:58:56.037Z,7.33
2023-11-29T23:01:28.538Z,7.27
2023-11-29T23:03:57.482Z,7.73
2023-11-29T23:06:26.507Z,7.33
2023-11-29T23:08:55.540Z,8.57
2023-11-29T23:11:24.346Z,8.10
2023-11-29T23:13:54.533Z,7.70
2023-11-29T23:16:23.298Z,7.63
2023-11-29T23:18:52.166Z,7.07
2023-11-29T23:21:21.552Z,8.40
2023-11-29T23:23:50.282Z,7.97
2023-11-29T23:26:19.200Z,7.83
2023-11-29T23:28:47.922Z,7.80
2023-11-29T23:31:17.954Z,8.63
2023-11-29T23:33:46.536Z,7.77
2023-11-29T23:36:15.087Z,24.33
2023-11-29T23:38:43.717Z,26.67
2023-11-29T23:41:15.822Z,40.90
2023-11-29T23:43:44.473Z,10.20
2023-11-29T23:46:13.190Z,19.20
2023-11-29T23:48:43.122Z,11.10
2023-11-29T23:51:13.614Z,20.67
2023-11-29T23:53:43.546Z,9.13
2023-11-29T23:56:14.267Z,8.23
2023-11-29T23:58:43.246Z,8.40
